createdAt,value
2019-05-20T00:01:01.436Z,90.90
2019-05-20T00:03:33.194Z,90.70
2019-05-20T00:06:02.526Z,90.80
2019-05-20T00:08:32.222Z,90.70
2019-05-20T00:11:04.940Z,90.90
2019-05-20T00:13:34.605Z,90.70
2019-05-20T00:16:04.253Z,90.80
2019-05-20T00:18:33.849Z,90.80
2019-05-20T00:21:03.580Z,90.80
2019-05-20T00:23:33.231Z,90.70
2019-05-20T00:26:02.805Z,90.60
2019-05-20T00:28:32.928Z,90.70
2019-05-20T00:31:02.568Z,90.80
2019-05-20T00:33:33.751Z,90.70
2019-05-20T00:36:03.330Z,90.60
2019-05-20T00:38:32.966Z,90.70
2019-05-20T00:41:02.482Z,90.80
2019-05-20T00:43:32.167Z,90.70
2019-05-20T00:46:01.773Z,90.60
2019-05-20T00:48:31.419Z,90.80
2019-05-20T00:51:00.987Z,90.70
2019-05-20T00:53:30.643Z,90.70
2019-05-20T00:56:00.139Z,90.60
2019-05-20T00:58:29.808Z,90.60
2019-05-20T01:00:59.432Z,90.70
2019-05-20T01:03:28.999Z,90.70
2019-05-20T01:05:58.588Z,90.70
2019-05-20T01:08:28.224Z,90.60
2019-05-20T01:10:57.875Z,90.60
2019-05-20T01:13:27.452Z,90.60
2019-05-20T01:15:57.083Z,90.50
2019-05-20T01:18:26.579Z,90.50
2019-05-20T01:20:57.247Z,90.60
2019-05-20T01:23:26.744Z,90.60
2019-05-20T01:25:56.347Z,90.80
2019-05-20T01:28:25.938Z,90.90
2019-05-20T01:30:55.460Z,91.00
2019-05-20T01:33:25.104Z,91.00
2019-05-20T01:35:54.689Z,91.20
2019-05-20T01:38:24.329Z,91.30
2019-05-20T01:40:53.899Z,91.40
2019-05-20T01:43:23.467Z,91.30
2019-05-20T01:45:53.135Z,91.40
2019-05-20T01:48:22.779Z,91.40
2019-05-20T01:50:52.420Z,91.40
2019-05-20T01:53:21.978Z,91.40
2019-05-20T01:55:52.653Z,91.40
2019-05-20T01:58:22.278Z,91.50
2019-05-20T02:00:51.912Z,91.60
2019-05-20T02:05:54.076Z,91.50
2019-05-20T02:08:23.602Z,91.60
2019-05-20T02:08:53.730Z,92.10
2019-05-20T02:10:56.344Z,91.70
2019-05-20T02:13:26.481Z,91.90
2019-05-20T02:15:57.690Z,91.90
2019-05-20T02:18:27.333Z,91.90
2019-05-20T02:20:56.912Z,91.90
2019-05-20T02:23:28.814Z,91.90
2019-05-20T02:25:58.465Z,91.90
2019-05-20T02:28:28.216Z,91.80
2019-05-20T02:30:57.791Z,91.90
2019-05-20T02:33:27.507Z,92.00
2019-05-20T02:35:57.188Z,92.20
2019-05-20T02:38:26.684Z,92.20
2019-05-20T02:40:56.349Z,92.30
2019-05-20T02:43:25.988Z,92.30
2019-05-20T02:45:55.491Z,92.20
2019-05-20T02:48:26.689Z,92.20
2019-05-20T02:50:56.477Z,92.00
2019-05-20T02:53:26.072Z,92.10
2019-05-20T02:55:57.295Z,92.10
2019-05-20T02:58:26.953Z,91.90
2019-05-20T03:00:56.715Z,92.00
2019-05-20T03:03:26.295Z,92.10
2019-05-20T03:05:56.007Z,92.00
2019-05-20T03:08:25.587Z,91.90
2019-05-20T03:10:55.168Z,91.90
2019-05-20T03:13:24.759Z,91.90
2019-05-20T03:15:54.347Z,92.20
2019-05-20T03:18:23.848Z,92.10
2019-05-20T03:20:53.356Z,92.10
2019-05-20T03:23:23.019Z,92.10
2019-05-20T03:25:52.586Z,92.00
2019-05-20T03:28:22.152Z,91.90
2019-05-20T03:30:51.673Z,91.90
2019-05-20T03:33:21.353Z,91.70
2019-05-20T03:35:50.937Z,91.50
2019-05-20T03:38:20.652Z,91.50
2019-05-20T03:40:50.228Z,91.50
2019-05-20T03:43:19.946Z,91.70
2019-05-20T03:45:49.516Z,91.70
2019-05-20T03:48:19.687Z,91.90
2019-05-20T03:50:49.272Z,91.90
2019-05-20T03:53:18.869Z,91.70
2019-05-20T03:55:48.463Z,91.70
2019-05-20T03:58:18.033Z,91.50
2019-05-20T04:00:48.151Z,91.70
2019-05-20T04:03:17.821Z,91.80
2019-05-20T04:05:47.585Z,91.70
2019-05-20T04:08:17.281Z,91.90
2019-05-20T04:10:46.860Z,91.80
2019-05-20T04:13:16.505Z,91.90
2019-05-20T04:15:46.089Z,91.60
2019-05-20T04:18:15.741Z,91.70
2019-05-20T04:20:45.400Z,91.90
2019-05-20T04:23:15.056Z,92.00
2019-05-20T04:25:44.765Z,92.30
2019-05-20T04:28:14.344Z,91.90
2019-05-20T04:30:43.984Z,91.80
2019-05-20T04:33:13.688Z,92.10
2019-05-20T04:35:43.184Z,92.20
2019-05-20T04:38:13.303Z,92.20
2019-05-20T04:40:42.879Z,92.20
2019-05-20T04:43:12.403Z,92.40
2019-05-20T04:45:42.484Z,92.30
2019-05-20T04:48:13.955Z,92.30
2019-05-20T04:50:43.307Z,92.20
2019-05-20T04:53:12.957Z,92.40
2019-05-20T04:55:42.676Z,92.50
2019-05-20T04:58:12.171Z,92.50
2019-05-20T05:00:50.084Z,92.60
2019-05-20T05:03:19.759Z,92.50
2019-05-20T05:05:50.298Z,92.50
2019-05-20T05:08:21.714Z,92.60
2019-05-20T05:10:51.331Z,92.40
2019-05-20T05:13:21.415Z,92.50
2019-05-20T05:15:52.362Z,92.50
2019-05-20T05:18:22.344Z,92.40
2019-05-20T05:20:51.942Z,92.50
2019-05-20T05:23:21.982Z,92.50
2019-05-20T05:25:52.537Z,92.60
2019-05-20T05:28:22.203Z,92.60
2019-05-20T05:30:51.780Z,92.60
2019-05-20T05:33:21.553Z,92.50
2019-05-20T05:35:53.494Z,92.50
2019-05-20T05:38:24.210Z,92.60
2019-05-20T05:40:53.764Z,92.50
2019-05-20T05:43:23.414Z,92.50
2019-05-20T05:45:53.081Z,92.30
2019-05-20T05:48:22.726Z,92.40
2019-05-20T05:50:52.314Z,92.30
2019-05-20T05:53:22.032Z,92.40
2019-05-20T05:55:51.682Z,92.20
2019-05-20T05:58:21.328Z,92.20
2019-05-20T06:00:50.985Z,92.10
2019-05-20T06:03:20.490Z,91.90
2019-05-20T06:05:50.126Z,91.50
2019-05-20T06:08:19.735Z,91.40
2019-05-20T06:10:49.419Z,91.30
2019-05-20T06:13:18.923Z,90.90
2019-05-20T06:15:48.767Z,90.90
2019-05-20T06:18:18.424Z,90.80
2019-05-20T06:20:48.139Z,90.90
2019-05-20T06:23:17.651Z,90.70
2019-05-20T06:25:47.166Z,90.50
2019-05-20T06:28:16.799Z,90.60
2019-05-20T06:30:48.773Z,90.60
2019-05-20T06:33:18.339Z,90.60
2019-05-20T06:35:48.952Z,90.20
2019-05-20T06:38:20.259Z,90.40
2019-05-20T06:40:49.829Z,90.10
2019-05-20T06:43:19.437Z,89.50
2019-05-20T06:45:49.164Z,88.80
2019-05-20T06:48:18.746Z,87.90
2019-05-20T06:50:48.461Z,85.30
2019-05-20T06:53:18.122Z,83.60
2019-05-20T06:55:47.684Z,85.30
2019-05-20T06:58:17.249Z,83.90
2019-05-20T07:01:08.385Z,82.30
2019-05-20T07:03:32.091Z,81.10
2019-05-20T07:06:01.703Z,81.70
2019-05-20T07:08:31.352Z,80.40
2019-05-20T07:11:00.930Z,79.90
2019-05-20T07:13:30.512Z,80.60
2019-05-20T07:16:00.149Z,81.00
2019-05-20T07:18:29.707Z,81.90
2019-05-20T07:21:00.259Z,80.70
2019-05-20T07:23:29.845Z,78.90
2019-05-20T07:25:59.409Z,80.20
2019-05-20T07:28:29.166Z,80.00
2019-05-20T07:30:59.051Z,81.30
2019-05-20T07:33:28.687Z,81.10
2019-05-20T07:35:58.251Z,81.40
2019-05-20T07:38:28.088Z,80.50
2019-05-20T07:40:57.870Z,79.00
2019-05-20T07:43:27.484Z,76.00
2019-05-20T07:45:57.698Z,72.90
2019-05-20T07:48:27.968Z,74.00
2019-05-20T07:50:57.878Z,74.10
2019-05-20T07:53:28.434Z,75.40
2019-05-20T07:56:09.880Z,75.50
2019-05-20T07:58:42.284Z,75.20
2019-05-20T08:01:11.922Z,74.60
2019-05-20T08:03:41.563Z,74.40
2019-05-20T08:06:11.054Z,74.50
2019-05-20T08:08:40.557Z,74.20
2019-05-20T08:11:10.130Z,74.50
2019-05-20T08:13:39.627Z,72.20
2019-05-20T08:16:09.283Z,69.30
2019-05-20T08:18:38.923Z,70.80
2019-05-20T08:21:08.424Z,72.10
2019-05-20T08:23:38.076Z,73.80
2019-05-20T08:26:07.661Z,73.80
2019-05-20T08:28:37.289Z,73.70
2019-05-20T08:31:06.940Z,72.20
2019-05-20T08:33:36.550Z,71.40
2019-05-20T08:36:06.135Z,68.80
2019-05-20T08:38:35.701Z,68.20
2019-05-20T08:41:05.342Z,68.50
2019-05-20T08:43:34.975Z,67.60
2019-05-20T08:46:04.639Z,66.80
2019-05-20T08:48:34.281Z,65.30
2019-05-20T08:51:05.220Z,66.30
2019-05-20T08:53:34.727Z,68.20
2019-05-20T08:56:04.254Z,69.50
2019-05-20T08:58:33.988Z,65.90
2019-05-20T09:01:03.907Z,62.70
2019-05-20T09:03:33.566Z,60.60
2019-05-20T09:06:03.233Z,60.30
2019-05-20T09:08:32.781Z,61.70
2019-05-20T09:11:02.411Z,63.60
2019-05-20T09:13:31.979Z,65.00
2019-05-20T09:16:02.751Z,63.40
2019-05-20T09:18:32.581Z,63.00
2019-05-20T09:21:02.589Z,63.10
2019-05-20T09:23:32.316Z,64.70
2019-05-20T09:26:01.883Z,65.90
2019-05-20T09:28:31.445Z,65.80
2019-05-20T09:31:01.233Z,62.90
2019-05-20T09:33:31.388Z,62.60
2019-05-20T09:36:03.085Z,63.20
2019-05-20T09:38:36.667Z,61.90
2019-05-20T09:41:04.379Z,60.70
2019-05-20T09:43:34.006Z,60.20
2019-05-20T09:46:07.564Z,58.60
2019-05-20T09:48:34.993Z,57.40
2019-05-20T09:51:04.734Z,59.50
2019-05-20T09:53:34.377Z,61.50
2019-05-20T09:56:04.007Z,61.40
2019-05-20T09:58:33.599Z,61.90
2019-05-20T10:01:03.187Z,63.10
2019-05-20T10:03:34.447Z,63.50
2019-05-20T10:06:04.153Z,62.80
2019-05-20T10:08:39.630Z,64.10
2019-05-20T10:11:05.061Z,64.20
2019-05-20T10:13:34.722Z,64.40
2019-05-20T10:16:04.494Z,65.60
2019-05-20T10:18:38.117Z,64.50
2019-05-20T10:21:05.328Z,64.10
2019-05-20T10:23:34.922Z,63.50
2019-05-20T10:26:04.610Z,61.70
2019-05-20T10:28:34.228Z,62.50
2019-05-20T10:31:03.793Z,63.20
2019-05-20T10:33:37.144Z,63.20
2019-05-20T10:36:06.261Z,65.50
2019-05-20T10:38:35.973Z,65.80
2019-05-20T10:41:05.604Z,63.40
2019-05-20T10:43:35.105Z,61.70
2019-05-20T10:46:04.670Z,60.90
2019-05-20T10:48:34.299Z,61.80
2019-05-20T10:51:03.862Z,63.10
2019-05-20T10:53:33.423Z,62.00
2019-05-20T10:56:03.308Z,61.00
2019-05-20T10:58:33.019Z,58.30
2019-05-20T11:01:03.793Z,60.10
2019-05-20T11:03:33.677Z,59.10
2019-05-20T11:06:03.486Z,59.80
2019-05-20T11:08:33.360Z,59.90
2019-05-20T11:11:03.055Z,59.00
2019-05-20T11:13:32.643Z,58.10
2019-05-20T11:16:02.251Z,58.60
2019-05-20T11:18:31.900Z,59.70
2019-05-20T11:21:01.540Z,58.00
2019-05-20T11:23:31.040Z,59.60
2019-05-20T11:26:00.622Z,59.30
2019-05-20T11:28:30.251Z,59.00
2019-05-20T11:30:59.811Z,58.60
2019-05-20T11:33:29.308Z,58.80
2019-05-20T11:35:58.948Z,58.90
2019-05-20T11:38:28.572Z,59.40
2019-05-20T11:40:58.074Z,58.50
2019-05-20T11:43:27.636Z,58.50
2019-05-20T11:45:57.203Z,59.60
2019-05-20T11:48:26.759Z,58.10
2019-05-20T11:50:56.254Z,58.80
2019-05-20T11:53:25.747Z,57.90
2019-05-20T11:55:55.379Z,58.80
2019-05-20T11:58:24.869Z,58.50
2019-05-20T12:00:54.444Z,56.80
2019-05-20T12:03:24.010Z,57.30
2019-05-20T12:05:53.510Z,56.50
2019-05-20T12:08:23.149Z,56.90
2019-05-20T12:10:52.699Z,56.20
2019-05-20T12:13:22.285Z,54.90
2019-05-20T12:15:51.844Z,54.90
2019-05-20T12:18:21.327Z,55.70
2019-05-20T12:20:50.891Z,55.10
2019-05-20T12:23:20.391Z,53.30
2019-05-20T12:25:49.950Z,53.10
2019-05-20T12:28:19.607Z,52.10
2019-05-20T12:30:49.163Z,51.70
2019-05-20T12:33:19.719Z,51.90
2019-05-20T12:35:49.827Z,51.70
2019-05-20T12:38:19.453Z,50.80
2019-05-20T12:40:49.083Z,49.20
2019-05-20T12:43:18.647Z,49.70
2019-05-20T12:45:48.264Z,49.40
2019-05-20T12:48:17.944Z,50.10
2019-05-20T12:50:47.507Z,49.10
2019-05-20T12:53:17.004Z,48.90
2019-05-20T12:55:46.495Z,49.10
2019-05-20T12:58:16.150Z,49.30
2019-05-20T13:00:45.781Z,50.30
2019-05-20T13:03:15.294Z,49.50
2019-05-20T13:05:44.846Z,47.80
2019-05-20T13:08:14.446Z,48.60
2019-05-20T13:10:44.083Z,48.90
2019-05-20T13:13:13.660Z,50.50
2019-05-20T13:15:43.216Z,51.50
2019-05-20T13:18:13.426Z,49.70
2019-05-20T13:20:43.129Z,47.80
2019-05-20T13:23:14.245Z,49.60
2019-05-20T13:25:44.950Z,47.00
2019-05-20T13:28:14.547Z,48.10
2019-05-20T13:30:44.054Z,47.30
2019-05-20T13:33:13.770Z,45.90
2019-05-20T13:35:43.387Z,46.40
2019-05-20T13:38:12.946Z,46.40
2019-05-20T13:40:47.041Z,47.70
2019-05-20T13:43:13.759Z,47.20
2019-05-20T13:45:43.347Z,48.50
2019-05-20T13:48:13.010Z,46.70
2019-05-20T13:50:42.799Z,48.50
2019-05-20T13:53:12.559Z,47.10
2019-05-20T13:55:42.162Z,46.50
2019-05-20T13:58:11.681Z,45.00
2019-05-20T14:00:42.350Z,48.50
2019-05-20T14:03:11.989Z,46.90
2019-05-20T14:05:41.687Z,48.30
2019-05-20T14:08:11.288Z,49.10
2019-05-20T14:10:41.762Z,48.10
2019-05-20T14:13:11.402Z,48.80
2019-05-20T14:15:41.719Z,48.10
2019-05-20T14:18:11.278Z,49.60
2019-05-20T14:20:40.863Z,47.70
2019-05-20T14:23:10.492Z,48.70
2019-05-20T14:25:40.102Z,47.60
2019-05-20T14:28:09.664Z,47.00
2019-05-20T14:30:39.234Z,47.80
2019-05-20T14:33:08.859Z,47.30
2019-05-20T14:35:38.415Z,48.60
2019-05-20T14:38:09.676Z,49.80
2019-05-20T14:40:39.244Z,50.70
2019-05-20T14:43:08.891Z,50.00
2019-05-20T14:45:39.036Z,49.50
2019-05-20T14:48:11.259Z,47.50
2019-05-20T14:50:40.867Z,48.90
2019-05-20T14:53:10.435Z,48.20
2019-05-20T14:55:42.513Z,46.40
2019-05-20T14:58:11.283Z,46.70
2019-05-20T15:00:40.835Z,46.60
2019-05-20T15:03:10.408Z,46.30
2019-05-20T15:05:41.200Z,46.00
2019-05-20T15:08:11.001Z,44.50
2019-05-20T15:10:40.611Z,45.50
2019-05-20T15:13:10.153Z,45.50
2019-05-20T15:15:39.770Z,46.40
2019-05-20T15:18:09.404Z,46.10
2019-05-20T15:20:38.963Z,47.20
2019-05-20T15:23:08.584Z,46.60
2019-05-20T15:25:38.210Z,46.60
2019-05-20T15:28:07.704Z,46.10
2019-05-20T15:30:37.332Z,46.20
2019-05-20T15:33:06.898Z,47.40
2019-05-20T15:35:36.526Z,48.40
2019-05-20T15:38:06.162Z,48.00
2019-05-20T15:40:35.836Z,47.40
2019-05-20T15:43:05.483Z,46.00
2019-05-20T15:45:35.059Z,47.30
2019-05-20T15:48:04.761Z,47.70
2019-05-20T15:50:34.323Z,46.80
2019-05-20T15:53:04.015Z,48.20
2019-05-20T15:55:34.770Z,48.20
2019-05-20T15:58:04.465Z,48.20
2019-05-20T16:00:34.194Z,48.50
2019-05-20T16:03:03.999Z,48.90
2019-05-20T16:05:33.724Z,48.70
2019-05-20T16:08:04.931Z,48.30
2019-05-20T16:10:34.558Z,48.00
2019-05-20T16:13:04.198Z,48.80
2019-05-20T16:15:33.831Z,48.50
2019-05-20T16:18:03.537Z,49.40
2019-05-20T16:20:33.432Z,47.70
2019-05-20T16:23:03.066Z,47.30
2019-05-20T16:25:32.755Z,47.40
2019-05-20T16:28:02.498Z,46.50
2019-05-20T16:30:33.733Z,46.30
2019-05-20T16:33:03.367Z,47.50
2019-05-20T16:35:34.640Z,49.10
2019-05-20T16:38:04.294Z,51.20
2019-05-20T16:40:33.854Z,52.80
2019-05-20T16:43:03.488Z,53.30
2019-05-20T16:45:36.092Z,54.00
2019-05-20T16:48:05.749Z,54.50
2019-05-20T16:50:35.301Z,55.20
2019-05-20T16:53:04.799Z,55.00
2019-05-20T16:55:34.798Z,54.30
2019-05-20T16:58:04.354Z,54.60
2019-05-20T17:00:34.644Z,54.60
2019-05-20T17:03:04.209Z,55.40
2019-05-20T17:05:33.854Z,55.20
2019-05-20T17:08:03.485Z,54.70
2019-05-20T17:10:33.191Z,55.30
2019-05-20T17:13:04.430Z,54.40
2019-05-20T17:15:34.086Z,53.90
2019-05-20T17:18:03.735Z,54.20
2019-05-20T17:20:33.367Z,53.70
2019-05-20T17:23:04.478Z,54.50
2019-05-20T17:25:34.105Z,54.80
2019-05-20T17:28:03.747Z,54.50
2019-05-20T17:30:45.106Z,54.50
2019-05-20T17:33:09.109Z,54.20
2019-05-20T17:35:38.753Z,54.60
2019-05-20T17:38:08.392Z,54.30
2019-05-20T17:40:38.026Z,55.00
2019-05-20T17:43:07.618Z,54.90
2019-05-20T17:45:37.254Z,54.60
2019-05-20T17:48:06.921Z,54.20
2019-05-20T17:50:36.483Z,54.20
2019-05-20T17:53:06.186Z,54.90
2019-05-20T17:55:35.888Z,55.30
2019-05-20T17:58:05.509Z,56.00
2019-05-20T18:00:35.180Z,56.10
2019-05-20T18:03:04.760Z,56.80
2019-05-20T18:05:34.386Z,56.30
2019-05-20T18:08:07.131Z,56.20
2019-05-20T18:10:36.834Z,56.00
2019-05-20T18:13:06.569Z,55.30
2019-05-20T18:15:36.204Z,55.70
2019-05-20T18:18:05.768Z,54.50
2019-05-20T18:20:35.409Z,55.10
2019-05-20T18:23:04.907Z,56.00
2019-05-20T18:25:34.460Z,56.10
2019-05-20T18:28:04.059Z,56.40
2019-05-20T18:30:33.687Z,56.40
2019-05-20T18:33:03.340Z,57.30
2019-05-20T18:35:33.008Z,57.40
2019-05-20T18:38:02.647Z,57.50
2019-05-20T18:40:32.219Z,57.90
2019-05-20T18:43:01.850Z,57.90
2019-05-20T18:45:31.495Z,58.00
2019-05-20T18:48:01.068Z,58.40
2019-05-20T18:50:30.562Z,58.30
2019-05-20T18:53:00.146Z,58.60
2019-05-20T18:55:29.641Z,58.70
2019-05-20T18:57:59.241Z,58.80
2019-05-20T19:00:29.199Z,58.90
2019-05-20T19:02:58.803Z,58.70
2019-05-20T19:05:28.516Z,59.00
2019-05-20T19:07:58.079Z,59.20
2019-05-20T19:10:27.635Z,59.10
2019-05-20T19:12:57.209Z,59.70
2019-05-20T19:15:26.852Z,60.30
2019-05-20T19:17:56.478Z,60.70
2019-05-20T19:20:26.127Z,60.50
2019-05-20T19:22:55.654Z,60.60
2019-05-20T19:25:36.933Z,61.30
2019-05-20T19:27:56.575Z,61.50
2019-05-20T19:30:26.141Z,61.60
2019-05-20T19:32:55.780Z,62.10
2019-05-20T19:35:25.419Z,61.70
2019-05-20T19:37:55.015Z,62.50
2019-05-20T19:40:24.644Z,62.20
2019-05-20T19:42:54.280Z,62.40
2019-05-20T19:45:23.844Z,62.50
2019-05-20T19:47:53.614Z,63.00
2019-05-20T19:50:23.245Z,63.30
2019-05-20T19:52:52.934Z,63.70
2019-05-20T19:55:22.531Z,64.30
2019-05-20T19:57:52.109Z,64.70
2019-05-20T20:00:21.864Z,65.10
2019-05-20T20:02:51.594Z,65.30
2019-05-20T20:05:21.209Z,65.20
2019-05-20T20:07:50.768Z,65.10
2019-05-20T20:10:20.568Z,65.90
2019-05-20T20:12:50.299Z,66.20
2019-05-20T20:15:20.470Z,67.00
2019-05-20T20:17:50.092Z,67.20
2019-05-20T20:20:19.589Z,66.90
2019-05-20T20:22:49.215Z,67.40
2019-05-20T20:25:18.779Z,67.70
2019-05-20T20:27:48.406Z,67.50
2019-05-20T20:30:18.242Z,67.30
2019-05-20T20:32:47.802Z,68.00
2019-05-20T20:35:17.632Z,67.90
2019-05-20T20:37:47.327Z,68.70
2019-05-20T20:40:16.987Z,69.10
2019-05-20T20:42:46.631Z,69.60
2019-05-20T20:45:16.559Z,70.40
2019-05-20T20:47:46.256Z,70.20
2019-05-20T20:50:15.743Z,70.10
2019-05-20T20:52:45.417Z,70.00
2019-05-20T20:55:15.047Z,70.20
2019-05-20T20:57:44.602Z,70.40
2019-05-20T21:00:14.592Z,70.20
2019-05-20T21:02:52.742Z,70.60
2019-05-20T21:05:15.471Z,70.20
2019-05-20T21:07:45.082Z,71.20
2019-05-20T21:10:14.649Z,70.80
2019-05-20T21:12:48.000Z,71.00
2019-05-20T21:15:18.917Z,71.10
2019-05-20T21:17:48.485Z,71.70
2019-05-20T21:20:19.108Z,71.40
2019-05-20T21:22:48.743Z,72.00
2019-05-20T21:25:18.231Z,72.20
2019-05-20T21:27:47.870Z,72.30
2019-05-20T21:30:17.418Z,72.70
2019-05-20T21:32:47.009Z,72.70
2019-05-20T21:35:16.631Z,72.80
2019-05-20T21:37:46.231Z,73.50
2019-05-20T21:40:15.771Z,74.30
2019-05-20T21:42:45.407Z,74.50
2019-05-20T21:45:14.968Z,74.90
2019-05-20T21:47:44.972Z,74.80
2019-05-20T21:50:14.554Z,75.60
2019-05-20T21:52:44.043Z,75.80
2019-05-20T21:55:13.721Z,76.40
2019-05-20T21:57:43.297Z,75.90
2019-05-20T22:00:14.891Z,75.90
2019-05-20T22:02:44.852Z,75.60
2019-05-20T22:05:20.652Z,74.80
2019-05-20T22:07:50.274Z,75.20
2019-05-20T22:10:19.767Z,74.70
2019-05-20T22:12:49.338Z,74.90
2019-05-20T22:15:18.959Z,75.10
2019-05-20T22:17:48.519Z,75.10
2019-05-20T22:20:18.124Z,74.90
2019-05-20T22:22:49.384Z,75.40
2019-05-20T22:25:18.943Z,76.50
2019-05-20T22:27:48.426Z,76.10
2019-05-20T22:30:17.986Z,75.90
2019-05-20T22:32:47.479Z,75.90
2019-05-20T22:35:17.044Z,75.90
2019-05-20T22:37:46.679Z,75.70
2019-05-20T22:40:16.186Z,76.30
2019-05-20T22:42:45.683Z,76.40
2019-05-20T22:45:15.241Z,76.30
2019-05-20T22:47:45.804Z,76.00
2019-05-20T22:50:15.542Z,76.00
2019-05-20T22:52:45.061Z,76.10
2019-05-20T22:55:14.539Z,75.60
2019-05-20T22:57:44.094Z,75.40
2019-05-20T23:00:14.658Z,75.20
2019-05-20T23:02:44.498Z,76.20
2019-05-20T23:05:13.999Z,76.00
2019-05-20T23:07:44.690Z,76.40
2019-05-20T23:10:14.374Z,76.70
2019-05-20T23:12:43.943Z,76.50
2019-05-20T23:15:13.509Z,77.20
2019-05-20T23:17:43.085Z,76.80
2019-05-20T23:20:13.195Z,77.30
2019-05-20T23:22:42.702Z,76.60
2019-05-20T23:25:12.206Z,76.20
2019-05-20T23:27:41.759Z,76.00
2019-05-20T23:30:12.019Z,76.60
2019-05-20T23:32:41.575Z,76.60
2019-05-20T23:35:11.147Z,77.90
2019-05-20T23:37:40.639Z,77.90
2019-05-20T23:40:10.419Z,77.60
2019-05-20T23:42:39.906Z,77.20
2019-05-20T23:45:10.104Z,77.10
2019-05-20T23:47:39.596Z,77.00
2019-05-20T23:50:09.267Z,77.40
2019-05-20T23:52:38.756Z,77.60
2019-05-20T23:55:09.729Z,78.50
2019-05-20T23:57:39.358Z,79.20
